Time;durP1;ratioP1;P1;durP2;ratioP2;P2;SDS_P1;SDS_P2;PMS_P1;PMS_P2;Temp;Humidity;BMP_temperature;BMP_pressure;BME280_temperature;BME280_humidity;BME280_pressure;Samples;Min_cycle;Max_cycle;Signal;HPM_P1;HPM_P2
2023/06/04 00:02:14;;;;;;;;;;;;;;;18.37;50.49;98261.00;7380858;19;20465;-82
2023/06/04 00:04:40;;;;;;;;;;;;;;;18.35;50.09;98259.56;7382849;19;19919;-85
2023/06/04 00:07:07;;;;;;;;;;;;;;;18.32;49.08;98263.50;7379467;19;19949;-83
2023/06/04 00:09:34;;;;;;;;;;;;;;;18.16;48.04;98259.38;7383811;19;20573;-84
2023/06/04 00:12:01;;;;;;;;;;;;;;;18.20;48.49;98270.53;7379014;19;19915;-84
2023/06/04 00:14:28;;;;;;;;;;;;;;;18.20;49.73;98267.84;7373401;19;19974;-80
2023/06/04 00:16:54;;;;;;;;;;;;;;;18.19;49.89;98268.84;7382807;19;19929;-81
2023/06/04 00:19:21;;;;;;;;;;;;;;;18.13;50.23;98269.69;7383437;19;19915;-82
2023/06/04 00:21:48;;;;;;;;;;;;;;;18.09;50.48;98268.44;7386926;19;19929;-82
2023/06/04 00:24:14;;;;;;;;;;;;;;;18.09;49.00;98260.41;7385512;19;19982;-81
2023/06/04 00:26:41;;;;;;;;;;;;;;;18.04;50.18;98260.25;7387881;19;19922;-81
2023/06/04 00:29:08;;;;;;;;;;;;;;;18.01;49.37;98261.47;7386344;19;19915;-80
2023/06/04 00:31:35;;;;;;;;;;;;;;;17.97;48.34;98255.69;7384502;19;19915;-85
2023/06/04 00:34:03;;;;;;;;;;;;;;;18.03;50.19;98263.94;7383746;19;20369;-84
2023/06/04 00:36:30;;;;;;;;;;;;;;;18.02;48.59;98265.78;7381044;19;19938;-80
2023/06/04 00:38:56;;;;;;;;;;;;;;;18.04;48.09;98266.41;7382596;19;19946;-82
2023/06/04 00:41:23;;;;;;;;;;;;;;;17.95;48.94;98270.31;7387627;19;19923;-84
2023/06/04 00:43:55;;;;;;;;;;;;;;;17.90;48.35;98278.94;7382350;19;20230;-80
2023/06/04 00:46:26;;;;;;;;;;;;;;;17.86;48.23;98280.41;7382733;19;19918;-83
2023/06/04 00:48:53;;;;;;;;;;;;;;;17.82;49.06;98287.19;7381447;19;19923;-82
2023/06/04 00:51:20;;;;;;;;;;;;;;;17.81;49.84;98277.50;7384927;19;19931;-82
2023/06/04 00:53:50;;;;;;;;;;;;;;;17.74;49.27;98285.50;7383000;19;19986;-82
2023/06/04 00:56:17;;;;;;;;;;;;;;;17.74;49.53;98282.00;7384026;19;19929;-84
2023/06/04 00:58:44;;;;;;;;;;;;;;;17.71;49.74;98287.75;7382802;19;20199;-83
2023/06/04 01:01:21;;;;;;;;;;;;;;;17.68;49.44;98286.31;7382897;19;19917;-82
2023/06/04 01:03:49;;;;;;;;;;;;;;;17.70;51.47;98286.13;7378381;19;19919;-81
2023/06/04 01:06:21;;;;;;;;;;;;;;;17.71;50.95;98291.25;7380535;19;21144;-82
2023/06/04 01:08:49;;;;;;;;;;;;;;;17.73;51.56;98285.72;7382646;19;19925;-81
2023/06/04 01:11:16;;;;;;;;;;;;;;;17.71;52.06;98291.25;7383890;19;19926;-81
2023/06/04 01:13:42;;;;;;;;;;;;;;;17.67;51.84;98290.03;7381711;19;19915;-82
2023/06/04 01:16:09;;;;;;;;;;;;;;;17.66;51.21;98293.72;7384102;19;20315;-82
2023/06/04 01:18:36;;;;;;;;;;;;;;;17.63;51.92;98287.94;7381942;19;20336;-82
2023/06/04 01:21:04;;;;;;;;;;;;;;;17.61;52.60;98293.50;7373901;19;20952;-82
2023/06/04 01:23:45;;;;;;;;;;;;;;;17.54;50.11;98298.03;7377929;19;19935;-81
2023/06/04 01:26:12;;;;;;;;;;;;;;;17.48;51.21;98288.13;7383113;19;19954;-81
2023/06/04 01:28:38;;;;;;;;;;;;;;;17.45;52.09;98289.34;7384833;19;20557;-80
2023/06/04 01:31:08;;;;;;;;;;;;;;;17.37;51.67;98289.53;7382063;19;20368;-84
2023/06/04 01:33:36;;;;;;;;;;;;;;;17.31;51.97;98291.16;7379756;19;19922;-81
2023/06/04 01:36:03;;;;;;;;;;;;;;;17.24;52.14;98284.97;7384273;19;19997;-84
2023/06/04 01:38:29;;;;;;;;;;;;;;;17.21;51.55;98287.22;7377863;19;19931;-80
2023/06/04 01:41:00;;;;;;;;;;;;;;;17.18;50.57;98282.28;7377693;19;20285;-83
2023/06/04 01:43:28;;;;;;;;;;;;;;;17.14;50.77;98291.72;7380403;19;19932;-81
2023/06/04 01:45:56;;;;;;;;;;;;;;;17.05;50.74;98286.53;7382505;19;20278;-81
2023/06/04 01:48:23;;;;;;;;;;;;;;;16.99;49.85;98279.31;7381194;19;19915;-82
2023/06/04 01:50:50;;;;;;;;;;;;;;;16.97;51.98;98286.72;7382206;19;19922;-82
2023/06/04 01:53:16;;;;;;;;;;;;;;;16.91;49.95;98290.19;7376932;19;19918;-81
2023/06/04 01:55:44;;;;;;;;;;;;;;;16.82;50.90;98288.69;7381740;19;19919;-82
2023/06/04 01:58:10;;;;;;;;;;;;;;;16.81;51.23;98292.41;7384872;19;19910;-80
2023/06/04 02:00:37;;;;;;;;;;;;;;;16.74;49.56;98297.66;7377775;19;19915;-80
2023/06/04 02:03:04;;;;;;;;;;;;;;;16.77;50.56;98299.13;7381899;19;19925;-83
2023/06/04 02:05:31;;;;;;;;;;;;;;;16.70;49.79;98295.59;7380538;19;20016;-82
2023/06/04 02:08:01;;;;;;;;;;;;;;;16.68;50.11;98290.44;7384832;19;19923;-80
2023/06/04 02:10:28;;;;;;;;;;;;;;;16.61;49.93;98293.09;7380621;19;19911;-82
2023/06/04 02:12:56;;;;;;;;;;;;;;;16.64;51.51;98295.38;7379822;19;20929;-81
2023/06/04 02:15:24;;;;;;;;;;;;;;;16.62;51.98;98297.41;7378103;19;19923;-82
2023/06/04 02:17:51;;;;;;;;;;;;;;;16.62;52.28;98300.06;7382932;19;20381;-81
2023/06/04 02:20:18;;;;;;;;;;;;;;;16.56;50.04;98305.34;7379089;19;19935;-80
2023/06/04 02:22:44;;;;;;;;;;;;;;;16.51;50.76;98289.94;7380751;19;19923;-81
2023/06/04 02:25:11;;;;;;;;;;;;;;;16.55;52.02;98293.84;7380992;19;19911;-82
2023/06/04 02:27:38;;;;;;;;;;;;;;;16.46;50.89;98292.38;7378234;19;19914;-80
2023/06/04 02:30:05;;;;;;;;;;;;;;;16.51;51.90;98295.28;7378409;19;19918;-83
2023/06/04 02:32:33;;;;;;;;;;;;;;;16.53;50.79;98289.72;7382718;19;19939;-84
2023/06/04 02:35:00;;;;;;;;;;;;;;;16.44;49.36;98289.88;7385838;19;19964;-85
2023/06/04 02:37:26;;;;;;;;;;;;;;;16.39;48.04;98289.63;7384229;19;19915;-82
2023/06/04 02:39:53;;;;;;;;;;;;;;;16.41;48.74;98297.47;7379161;19;19942;-82
2023/06/04 02:42:20;;;;;;;;;;;;;;;16.42;48.67;98294.59;7383185;19;19970;-81
2023/06/04 02:44:47;;;;;;;;;;;;;;;16.44;50.08;98297.91;7377925;19;19971;-81
2023/06/04 02:47:14;;;;;;;;;;;;;;;16.36;47.65;98303.38;7382682;19;19918;-80
2023/06/04 02:49:40;;;;;;;;;;;;;;;16.38;48.61;98298.69;7382022;19;19919;-82
2023/06/04 02:52:07;;;;;;;;;;;;;;;16.28;47.88;98292.84;7381580;19;19931;-83
2023/06/04 02:54:34;;;;;;;;;;;;;;;16.34;48.68;98301.94;7379980;19;20405;-82
2023/06/04 02:57:03;;;;;;;;;;;;;;;16.30;48.74;98295.31;7381068;19;19925;-82
2023/06/04 02:59:32;;;;;;;;;;;;;;;16.29;48.93;98293.66;7376814;19;19923;-83
2023/06/04 03:01:58;;;;;;;;;;;;;;;16.27;49.04;98301.88;7377462;19;19966;-81
2023/06/04 03:04:26;;;;;;;;;;;;;;;16.26;48.39;98304.75;7382590;19;20301;-85
2023/06/04 03:06:57;;;;;;;;;;;;;;;16.18;48.90;98298.53;7381780;19;19923;-81
2023/06/04 03:09:24;;;;;;;;;;;;;;;16.15;49.25;98304.25;7384481;19;19931;-85
2023/06/04 03:11:51;;;;;;;;;;;;;;;16.04;49.32;98304.78;7385935;19;19999;-83
2023/06/04 03:14:20;;;;;;;;;;;;;;;16.02;49.55;98310.31;7382232;19;19927;-81
2023/06/04 03:16:48;;;;;;;;;;;;;;;15.95;48.08;98306.75;7376057;19;19921;-81
2023/06/04 03:19:16;;;;;;;;;;;;;;;15.94;47.95;98317.63;7375425;19;20376;-81
2023/06/04 03:21:44;;;;;;;;;;;;;;;15.88;48.49;98316.53;7379877;19;19918;-81
2023/06/04 03:24:11;;;;;;;;;;;;;;;15.90;48.22;98322.50;7377713;19;19919;-82
2023/06/04 03:26:38;;;;;;;;;;;;;;;15.91;50.33;98323.34;7379990;19;19936;-82
2023/06/04 03:29:05;;;;;;;;;;;;;;;15.92;50.90;98315.13;7380549;19;19921;-81
2023/06/04 03:31:32;;;;;;;;;;;;;;;15.91;51.00;98321.50;7380363;19;19947;-82
2023/06/04 03:33:59;;;;;;;;;;;;;;;15.85;50.64;98324.94;7373432;19;19990;-81
2023/06/04 03:36:31;;;;;;;;;;;;;;;15.88;51.97;98323.72;7373485;19;19919;-79
2023/06/04 03:38:59;;;;;;;;;;;;;;;15.86;51.41;98323.91;7377868;19;19923;-82
2023/06/04 03:41:26;;;;;;;;;;;;;;;15.86;51.47;98320.41;7377788;19;19922;-82
2023/06/04 03:43:54;;;;;;;;;;;;;;;15.85;52.47;98321.41;7374737;19;19939;-82
2023/06/04 03:46:20;;;;;;;;;;;;;;;15.88;51.07;98334.41;7371825;19;19943;-82
2023/06/04 03:48:47;;;;;;;;;;;;;;;15.91;53.85;98331.34;7377909;19;20413;-80
2023/06/04 03:51:15;;;;;;;;;;;;;;;15.91;52.97;98332.16;7378695;19;19911;-82
2023/06/04 03:53:43;;;;;;;;;;;;;;;15.95;53.59;98332.59;7378403;19;20317;-82
2023/06/04 03:56:10;;;;;;;;;;;;;;;15.99;55.17;98340.03;7385527;19;19919;-84
2023/06/04 03:58:37;;;;;;;;;;;;;;;15.98;55.17;98332.22;7386675;19;19934;-81
2023/06/04 04:01:05;;;;;;;;;;;;;;;15.93;52.28;98334.63;7387677;19;20299;-81
2023/06/04 04:03:34;;;;;;;;;;;;;;;15.95;53.68;98335.25;7384203;19;19944;-80
2023/06/04 04:06:01;;;;;;;;;;;;;;;15.93;52.62;98339.97;7388537;19;19923;-80
2023/06/04 04:08:31;;;;;;;;;;;;;;;15.94;54.90;98346.97;7382954;19;19919;-80
2023/06/04 04:10:58;;;;;;;;;;;;;;;15.94;55.25;98338.97;7388785;19;20396;-80
2023/06/04 04:13:25;;;;;;;;;;;;;;;15.95;55.62;98348.59;7380651;19;20027;-82
2023/06/04 04:15:53;;;;;;;;;;;;;;;15.82;56.06;98346.63;7388715;19;19937;-81
2023/06/04 04:18:20;;;;;;;;;;;;;;;15.80;54.86;98348.69;7385227;19;19918;-80
2023/06/04 04:20:47;;;;;;;;;;;;;;;15.81;53.06;98342.31;7384960;19;20647;-81
2023/06/04 04:23:14;;;;;;;;;;;;;;;15.84;56.12;98354.47;7382425;19;19953;-80
2023/06/04 04:25:48;;;;;;;;;;;;;;;15.88;57.21;98355.75;7382387;19;20580;-80
2023/06/04 04:28:17;;;;;;;;;;;;;;;15.86;55.16;98352.44;7389742;19;19974;-80
2023/06/04 04:30:46;;;;;;;;;;;;;;;15.89;55.12;98357.38;7375991;19;19942;-80
2023/06/04 04:33:17;;;;;;;;;;;;;;;15.90;55.62;98359.03;7387579;19;20001;-80
2023/06/04 04:35:47;;;;;;;;;;;;;;;15.90;53.39;98353.69;7387708;19;19926;-80
2023/06/04 04:38:18;;;;;;;;;;;;;;;15.89;52.20;98360.06;7385639;19;19922;-81
2023/06/04 04:40:52;;;;;;;;;;;;;;;15.94;53.26;98365.66;7381223;19;19974;-80
2023/06/04 04:43:28;;;;;;;;;;;;;;;15.95;55.30;98361.94;7381359;19;20372;-80
2023/06/04 04:45:55;;;;;;;;;;;;;;;16.02;51.90;98365.50;7389089;19;20267;-80
2023/06/04 04:48:22;;;;;;;;;;;;;;;16.08;52.56;98367.41;7386580;19;20301;-81
2023/06/04 04:50:48;;;;;;;;;;;;;;;16.14;51.83;98365.81;7382827;19;19919;-81
2023/06/04 04:53:15;;;;;;;;;;;;;;;16.03;49.31;98367.16;7387715;19;19932;-80
2023/06/04 04:55:42;;;;;;;;;;;;;;;16.02;49.39;98368.19;7386633;19;20413;-80
2023/06/04 04:58:09;;;;;;;;;;;;;;;16.08;49.53;98372.75;7382551;19;20220;-80
2023/06/04 05:00:36;;;;;;;;;;;;;;;16.01;49.09;98367.38;7383921;19;19954;-80
2023/06/04 05:03:02;;;;;;;;;;;;;;;15.88;47.88;98371.75;7385147;19;19923;-80
2023/06/04 05:05:30;;;;;;;;;;;;;;;16.07;50.69;98376.44;7384678;19;19946;-80
2023/06/04 05:07:57;;;;;;;;;;;;;;;16.19;54.20;98372.25;7383375;19;19926;-80
2023/06/04 05:10:29;;;;;;;;;;;;;;;16.24;53.39;98375.19;7385596;19;19911;-80
2023/06/04 05:12:57;;;;;;;;;;;;;;;16.28;52.28;98372.94;7386568;19;19919;-79
2023/06/04 05:15:30;;;;;;;;;;;;;;;16.34;51.63;98374.84;7382436;19;19934;-80
2023/06/04 05:18:00;;;;;;;;;;;;;;;16.37;51.67;98382.44;7391386;19;19921;-80
2023/06/04 05:20:30;;;;;;;;;;;;;;;16.43;49.48;98383.56;7384285;19;19939;-81
2023/06/04 05:22:57;;;;;;;;;;;;;;;16.53;50.84;98369.84;7382573;19;19935;-81
2023/06/04 05:25:26;;;;;;;;;;;;;;;16.65;54.62;98379.81;7381600;19;19925;-80
2023/06/04 05:27:55;;;;;;;;;;;;;;;16.72;52.38;98385.22;7380925;19;19919;-81
2023/06/04 05:30:22;;;;;;;;;;;;;;;16.76;52.02;98383.78;7379174;19;20463;-80
2023/06/04 05:32:50;;;;;;;;;;;;;;;16.78;50.17;98388.97;7386378;19;19947;-80
2023/06/04 05:35:20;;;;;;;;;;;;;;;16.82;49.38;98396.38;7384637;19;19918;-80
2023/06/04 05:37:53;;;;;;;;;;;;;;;16.89;50.53;98397.25;7389805;19;19985;-79
2023/06/04 05:40:24;;;;;;;;;;;;;;;16.96;48.28;98399.16;7385126;19;19923;-80
2023/06/04 05:42:51;;;;;;;;;;;;;;;16.97;47.74;98400.81;7387822;19;20002;-80
2023/06/04 05:45:18;;;;;;;;;;;;;;;17.03;48.55;98398.16;7388356;19;19923;-80
2023/06/04 05:47:45;;;;;;;;;;;;;;;17.03;49.92;98400.00;7379528;19;19946;-79
2023/06/04 05:50:12;;;;;;;;;;;;;;;17.03;47.62;98398.16;7389988;19;20304;-80
2023/06/04 05:52:39;;;;;;;;;;;;;;;17.02;46.53;98403.72;7389079;19;20388;-80
2023/06/04 05:55:10;;;;;;;;;;;;;;;17.05;47.21;98406.81;7384880;19;19925;-81
2023/06/04 05:57:37;;;;;;;;;;;;;;;17.07;48.09;98409.31;7382916;19;19929;-80
2023/06/04 06:00:10;;;;;;;;;;;;;;;17.10;48.98;98403.56;7385888;19;19922;-81
2023/06/04 06:02:40;;;;;;;;;;;;;;;17.19;51.49;98409.56;7387343;19;20184;-81
2023/06/04 06:05:17;;;;;;;;;;;;;;;17.16;48.17;98407.28;7384396;19;20279;-79
2023/06/04 06:07:44;;;;;;;;;;;;;;;17.15;48.99;98405.66;7381368;19;19915;-79
2023/06/04 06:10:11;;;;;;;;;;;;;;;17.18;47.20;98406.06;7385159;19;20467;-81
2023/06/04 06:12:38;;;;;;;;;;;;;;;17.14;47.41;98415.53;7388016;19;19919;-80
2023/06/04 06:15:05;;;;;;;;;;;;;;;17.15;47.17;98416.34;7388741;19;19955;-80
2023/06/04 06:17:32;;;;;;;;;;;;;;;17.10;47.43;98417.75;7380939;19;19935;-79
2023/06/04 06:19:59;;;;;;;;;;;;;;;17.17;48.17;98407.09;7379637;19;19915;-80
2023/06/04 06:22:27;;;;;;;;;;;;;;;17.23;47.97;98416.19;7378433;19;19930;-81
2023/06/04 06:24:53;;;;;;;;;;;;;;;17.19;48.08;98413.06;7382082;19;21848;-80
2023/06/04 06:27:20;;;;;;;;;;;;;;;17.21;47.74;98413.69;7378810;19;19926;-81
2023/06/04 06:29:47;;;;;;;;;;;;;;;17.14;48.06;98423.53;7378329;19;19986;-81
2023/06/04 06:32:14;;;;;;;;;;;;;;;17.24;49.17;98424.00;7386218;19;19914;-82
2023/06/04 06:34:40;;;;;;;;;;;;;;;17.17;48.08;98422.28;7380994;19;19922;-80
2023/06/04 06:37:07;;;;;;;;;;;;;;;17.28;49.38;98424.44;7382386;19;19934;-82
2023/06/04 06:39:35;;;;;;;;;;;;;;;17.28;46.84;98433.28;7382458;19;20353;-80
2023/06/04 06:42:01;;;;;;;;;;;;;;;17.34;47.27;98426.31;7384427;19;19947;-79
2023/06/04 06:44:34;;;;;;;;;;;;;;;17.40;47.10;98432.72;7378117;19;19956;-79
2023/06/04 06:47:01;;;;;;;;;;;;;;;17.53;46.78;98430.91;7381543;19;20639;-80
2023/06/04 06:49:27;;;;;;;;;;;;;;;17.65;47.81;98427.69;7383995;19;19926;-80
2023/06/04 06:51:54;;;;;;;;;;;;;;;17.61;48.85;98434.47;7380048;19;19922;-80
2023/06/04 06:54:21;;;;;;;;;;;;;;;17.63;48.25;98435.09;7378144;19;19919;-79
2023/06/04 06:56:50;;;;;;;;;;;;;;;17.74;49.13;98438.00;7390612;19;19957;-81
2023/06/04 06:59:17;;;;;;;;;;;;;;;17.75;46.96;98441.53;7388201;19;19944;-80
2023/06/04 07:01:43;;;;;;;;;;;;;;;17.81;48.09;98435.41;7384042;19;19914;-81
2023/06/04 07:04:10;;;;;;;;;;;;;;;17.93;48.22;98440.97;7379182;19;20341;-81
2023/06/04 07:06:37;;;;;;;;;;;;;;;18.03;47.80;98429.91;7377486;19;19914;-79
2023/06/04 07:09:05;;;;;;;;;;;;;;;18.08;46.43;98422.91;7384477;19;19925;-80
2023/06/04 07:11:32;;;;;;;;;;;;;;;18.12;46.80;98429.53;7376200;19;19925;-81
2023/06/04 07:13:59;;;;;;;;;;;;;;;18.14;45.82;98430.16;7381590;19;19922;-80
2023/06/04 07:16:26;;;;;;;;;;;;;;;18.21;44.93;98427.47;7387585;19;19950;-80
2023/06/04 07:18:52;;;;;;;;;;;;;;;18.25;45.05;98433.25;7387686;19;19980;-80
2023/06/04 07:21:21;;;;;;;;;;;;;;;18.35;44.71;98436.34;7376803;19;19922;-80
2023/06/04 07:23:50;;;;;;;;;;;;;;;18.37;44.67;98432.44;7373874;19;19990;-81
2023/06/04 07:26:17;;;;;;;;;;;;;;;18.47;45.35;98441.94;7387373;19;19933;-79
2023/06/04 07:28:44;;;;;;;;;;;;;;;18.60;45.79;98431.22;7393124;19;19927;-80
2023/06/04 07:31:11;;;;;;;;;;;;;;;18.69;44.41;98440.69;7396283;19;19915;-81
2023/06/04 07:33:42;;;;;;;;;;;;;;;18.83;45.63;98430.84;7388412;19;19929;-80
2023/06/04 07:36:13;;;;;;;;;;;;;;;19.07;47.73;98438.22;7388179;19;19998;-80
2023/06/04 07:38:40;;;;;;;;;;;;;;;19.16;45.14;98436.13;7393616;19;19923;-81
2023/06/04 07:41:06;;;;;;;;;;;;;;;19.19;44.52;98438.41;7393641;19;19931;-80
2023/06/04 07:43:34;;;;;;;;;;;;;;;19.11;44.90;98437.81;7380433;19;19918;-83
2023/06/04 07:46:02;;;;;;;;;;;;;;;19.07;45.15;98440.09;7384287;19;20404;-80
2023/06/04 07:48:30;;;;;;;;;;;;;;;19.11;44.36;98435.13;7392082;19;19947;-80
2023/06/04 07:50:57;;;;;;;;;;;;;;;19.22;46.28;98427.28;7393838;19;19921;-80
2023/06/04 07:53:24;;;;;;;;;;;;;;;19.43;45.85;98419.97;7389130;19;19923;-80
2023/06/04 07:55:51;;;;;;;;;;;;;;;19.62;44.51;98419.09;7392490;19;19923;-80
2023/06/04 07:58:18;;;;;;;;;;;;;;;19.74;42.44;98425.47;7391071;19;19919;-79
2023/06/04 08:00:45;;;;;;;;;;;;;;;19.66;42.32;98427.53;7385067;19;19965;-79
2023/06/04 08:03:12;;;;;;;;;;;;;;;19.79;42.48;98416.78;7390459;19;19910;-82
2023/06/04 08:05:39;;;;;;;;;;;;;;;19.82;42.98;98418.22;7389438;19;19914;-79
2023/06/04 08:08:05;;;;;;;;;;;;;;;19.87;44.18;98413.00;7391679;19;19927;-78
2023/06/04 08:10:32;;;;;;;;;;;;;;;19.80;44.06;98418.44;7385084;19;19929;-79
2023/06/04 08:12:59;;;;;;;;;;;;;;;19.92;45.33;98407.81;7390963;19;20686;-79
2023/06/04 08:15:25;;;;;;;;;;;;;;;19.93;42.86;98422.88;7391178;19;19919;-79
2023/06/04 08:17:52;;;;;;;;;;;;;;;20.07;45.90;98413.75;7388273;19;19923;-79
2023/06/04 08:20:19;;;;;;;;;;;;;;;20.07;42.58;98415.59;7390844;19;19922;-80
2023/06/04 08:22:48;;;;;;;;;;;;;;;20.23;44.38;98416.94;7383649;19;19954;-79
2023/06/04 08:25:15;;;;;;;;;;;;;;;20.31;45.01;98411.31;7392825;19;20014;-78
2023/06/04 08:27:42;;;;;;;;;;;;;;;20.48;44.62;98407.03;7391490;19;19915;-80
2023/06/04 08:30:09;;;;;;;;;;;;;;;20.61;44.03;98412.34;7388176;19;20025;-80
2023/06/04 08:32:42;;;;;;;;;;;;;;;20.71;44.58;98416.41;7391018;19;19923;-78
2023/06/04 08:35:08;;;;;;;;;;;;;;;20.69;42.75;98415.78;7389074;19;19918;-80
2023/06/04 08:37:35;;;;;;;;;;;;;;;20.76;41.78;98416.56;7392038;19;19915;-80
2023/06/04 08:40:04;;;;;;;;;;;;;;;20.69;42.63;98419.31;7390298;19;19974;-80
2023/06/04 08:42:31;;;;;;;;;;;;;;;20.80;43.87;98423.13;7399234;19;20277;-81
2023/06/04 08:44:58;;;;;;;;;;;;;;;20.86;41.68;98416.91;7394553;19;19942;-81
2023/06/04 08:47:28;;;;;;;;;;;;;;;20.91;41.00;98417.06;7393723;19;20352;-82
2023/06/04 08:49:55;;;;;;;;;;;;;;;20.97;39.66;98418.03;7391856;19;19945;-81
2023/06/04 08:52:25;;;;;;;;;;;;;;;21.09;39.69;98413.56;7387835;19;19933;-80
2023/06/04 08:54:53;;;;;;;;;;;;;;;20.98;40.16;98412.41;7390409;19;19918;-83
2023/06/04 08:57:20;;;;;;;;;;;;;;;21.14;39.95;98412.88;7396079;19;19923;-76
2023/06/04 08:59:46;;;;;;;;;;;;;;;21.15;43.12;98406.47;7389568;19;19919;-79
2023/06/04 09:02:16;;;;;;;;;;;;;;;21.21;42.90;98410.97;7390053;19;20712;-78
2023/06/04 09:04:46;;;;;;;;;;;;;;;21.21;42.32;98400.19;7390099;19;20316;-79
2023/06/04 09:07:13;;;;;;;;;;;;;;;21.35;42.35;98404.38;7393580;19;19975;-81
2023/06/04 09:09:40;;;;;;;;;;;;;;;21.32;41.54;98407.50;7385758;19;19929;-78
2023/06/04 09:12:08;;;;;;;;;;;;;;;21.35;39.73;98414.31;7394036;19;20001;-79
2023/06/04 09:14:35;;;;;;;;;;;;;;;21.59;41.10;98412.63;7390610;19;19921;-81
2023/06/04 09:17:02;;;;;;;;;;;;;;;21.40;39.21;98409.94;7393457;19;19931;-81
2023/06/04 09:19:28;;;;;;;;;;;;;;;21.63;39.95;98403.88;7389060;19;19962;-81
2023/06/04 09:21:56;;;;;;;;;;;;;;;21.76;40.94;98410.97;7395157;19;19925;-79
2023/06/04 09:24:24;;;;;;;;;;;;;;;21.79;39.04;98407.00;7394302;19;19990;-79
2023/06/04 09:26:54;;;;;;;;;;;;;;;21.85;38.74;98404.22;7389001;19;19925;-81
2023/06/04 09:29:21;;;;;;;;;;;;;;;21.80;38.02;98404.09;7388606;19;19923;-80
2023/06/04 09:31:57;;;;;;;;;;;;;;;21.92;37.09;98406.81;7388682;19;19915;-80
2023/06/04 09:34:28;;;;;;;;;;;;;;;22.23;40.40;98407.66;7389741;19;19936;-81
2023/06/04 09:36:54;;;;;;;;;;;;;;;22.34;39.58;98404.16;7387802;19;19934;-80
2023/06/04 09:39:25;;;;;;;;;;;;;;;22.50;38.24;98413.47;7386105;19;20353;-80
2023/06/04 09:42:01;;;;;;;;;;;;;;;22.63;37.08;98404.34;7385776;19;19924;-78
2023/06/04 09:44:31;;;;;;;;;;;;;;;22.50;37.14;98408.06;7389150;19;19926;-84
2023/06/04 09:46:57;;;;;;;;;;;;;;;22.46;36.54;98402.31;7393575;19;19918;-79
2023/06/04 09:49:24;;;;;;;;;;;;;;;22.75;37.81;98400.59;7389662;19;20507;-80
2023/06/04 09:51:51;;;;;;;;;;;;;;;22.99;37.43;98404.16;7388496;19;19922;-82
2023/06/04 09:54:18;;;;;;;;;;;;;;;23.14;36.14;98384.75;7390443;19;19919;-81
2023/06/04 09:56:45;;;;;;;;;;;;;;;23.48;35.18;98393.03;7386023;19;19945;-78
2023/06/04 09:59:12;;;;;;;;;;;;;;;23.80;33.00;98396.16;7386966;19;19922;-83
2023/06/04 10:01:39;;;;;;;;;;;;;;;24.40;34.56;98397.47;7389325;19;19928;-80
2023/06/04 10:04:06;;;;;;;;;;;;;;;24.65;34.13;98401.72;7388332;19;19927;-78
2023/06/04 10:06:35;;;;;;;;;;;;;;;25.07;34.20;98393.16;7390248;19;20349;-79
2023/06/04 10:09:07;;;;;;;;;;;;;;;25.39;32.15;98390.63;7390925;19;20012;-80
2023/06/04 10:11:35;;;;;;;;;;;;;;;25.98;31.73;98384.53;7385487;19;20322;-80
2023/06/04 10:14:04;;;;;;;;;;;;;;;26.39;30.99;98387.66;7387702;19;19922;-81
2023/06/04 10:16:31;;;;;;;;;;;;;;;27.14;28.92;98383.84;7379847;19;19951;-80
2023/06/04 10:19:00;;;;;;;;;;;;;;;27.08;27.61;98384.09;7386808;19;20332;-84
2023/06/04 10:21:27;;;;;;;;;;;;;;;26.76;29.61;98387.69;7388484;19;19910;-79
2023/06/04 10:23:54;;;;;;;;;;;;;;;26.89;28.89;98391.88;7383836;19;20513;-78
2023/06/04 10:26:21;;;;;;;;;;;;;;;26.42;28.45;98382.53;7389798;19;19997;-81
2023/06/04 10:28:48;;;;;;;;;;;;;;;25.77;30.41;98381.56;7385707;19;19922;-81
2023/06/04 10:31:15;;;;;;;;;;;;;;;26.00;31.64;98383.22;7386681;19;20444;-81
2023/06/04 10:33:41;;;;;;;;;;;;;;;25.93;29.93;98379.06;7381638;19;19914;-81
2023/06/04 10:36:18;;;;;;;;;;;;;;;25.72;31.28;98384.22;7383331;19;20574;-81
2023/06/04 10:38:46;;;;;;;;;;;;;;;25.60;32.22;98375.44;7387757;19;19915;-80
2023/06/04 10:41:13;;;;;;;;;;;;;;;25.10;32.16;98376.41;7390537;19;19939;-84
2023/06/04 10:43:40;;;;;;;;;;;;;;;24.88;32.58;98379.91;7386191;19;20411;-80
2023/06/04 10:46:13;;;;;;;;;;;;;;;24.41;31.72;98374.81;7388627;19;19911;-79
2023/06/04 10:48:46;;;;;;;;;;;;;;;24.28;33.91;98381.34;7385173;19;19936;-80
2023/06/04 10:51:13;;;;;;;;;;;;;;;24.12;33.42;98376.75;7387155;19;19915;-85
2023/06/04 10:53:40;;;;;;;;;;;;;;;24.00;32.17;98379.50;7379370;19;19990;-81
2023/06/04 10:56:07;;;;;;;;;;;;;;;24.07;31.59;98382.06;7387261;19;19911;-81
2023/06/04 10:58:34;;;;;;;;;;;;;;;24.19;32.79;98379.28;7387284;19;19921;-85
2023/06/04 11:01:01;;;;;;;;;;;;;;;24.14;30.44;98374.59;7389552;19;20002;-79
2023/06/04 11:03:37;;;;;;;;;;;;;;;24.18;31.33;98369.53;7386133;19;19918;-81
2023/06/04 11:06:14;;;;;;;;;;;;;;;24.22;33.36;98370.66;7385542;19;19935;-80
2023/06/04 11:08:41;;;;;;;;;;;;;;;24.21;31.29;98363.63;7386302;19;19929;-80
2023/06/04 11:11:11;;;;;;;;;;;;;;;24.15;32.23;98370.03;7386593;19;22646;-80
2023/06/04 11:13:38;;;;;;;;;;;;;;;24.13;31.55;98372.16;7381447;19;19927;-79
2023/06/04 11:16:17;;;;;;;;;;;;;;;24.06;32.28;98372.28;7383389;19;19915;-81
2023/06/04 11:18:53;;;;;;;;;;;;;;;24.19;31.15;98379.28;7384097;19;19937;-79
2023/06/04 11:21:20;;;;;;;;;;;;;;;24.05;31.61;98370.66;7384501;19;19926;-81
2023/06/04 11:23:47;;;;;;;;;;;;;;;24.01;31.72;98370.34;7381464;19;19938;-81
2023/06/04 11:26:14;;;;;;;;;;;;;;;24.00;31.46;98373.28;7384148;19;19918;-79
2023/06/04 11:28:42;;;;;;;;;;;;;;;23.95;34.03;98382.09;7384201;19;19915;-79
2023/06/04 11:31:09;;;;;;;;;;;;;;;23.89;30.96;98369.56;7383584;19;19925;-80
2023/06/04 11:33:49;;;;;;;;;;;;;;;24.01;33.78;98374.91;7385413;19;19927;-81
2023/06/04 11:36:26;;;;;;;;;;;;;;;24.07;32.58;98377.47;7385565;19;19911;-81
2023/06/04 11:38:54;;;;;;;;;;;;;;;24.04;32.07;98364.44;7389317;19;20261;-80
2023/06/04 11:41:22;;;;;;;;;;;;;;;24.26;31.98;98363.72;7388423;19;20531;-81
2023/06/04 11:43:48;;;;;;;;;;;;;;;24.37;31.50;98372.81;7384204;19;20219;-81
2023/06/04 11:46:15;;;;;;;;;;;;;;;24.28;31.80;98369.72;7389224;19;19919;-81
2023/06/04 11:48:42;;;;;;;;;;;;;;;24.26;34.09;98371.84;7388908;19;20529;-81
2023/06/04 11:51:09;;;;;;;;;;;;;;;24.15;31.93;98370.03;7386431;19;20077;-80
2023/06/04 11:53:36;;;;;;;;;;;;;;;24.06;33.26;98365.00;7372860;19;20656;-80
2023/06/04 11:56:06;;;;;;;;;;;;;;;24.16;32.56;98367.06;7377126;19;19923;-79
2023/06/04 11:58:32;;;;;;;;;;;;;;;24.08;33.05;98354.78;7380050;19;19918;-81
2023/06/04 12:01:02;;;;;;;;;;;;;;;24.20;32.39;98356.59;7375117;19;19978;-79
2023/06/04 12:03:38;;;;;;;;;;;;;;;24.30;30.67;98368.41;7382223;19;19919;-81
2023/06/04 12:06:18;;;;;;;;;;;;;;;24.22;29.77;98354.44;7403196;19;20365;-85
2023/06/04 12:08:48;;;;;;;;;;;;;;;24.47;31.55;98359.50;7391682;19;19919;-81
2023/06/04 12:11:28;;;;;;;;;;;;;;;24.64;32.32;98354.06;7388476;19;20384;-82
2023/06/04 12:13:55;;;;;;;;;;;;;;;24.77;28.64;98359.16;7383562;19;19922;-82
2023/06/04 12:16:22;;;;;;;;;;;;;;;24.66;30.38;98351.94;7391943;19;19918;-79
2023/06/04 12:18:50;;;;;;;;;;;;;;;24.85;32.83;98347.88;7389895;19;20324;-82
2023/06/04 12:21:19;;;;;;;;;;;;;;;24.83;29.13;98352.75;7390414;19;20595;-81
2023/06/04 12:23:46;;;;;;;;;;;;;;;24.54;30.18;98346.66;7389347;19;19922;-85
2023/06/04 12:26:28;;;;;;;;;;;;;;;24.56;31.28;98343.69;7391115;19;19987;-84
2023/06/04 12:29:00;;;;;;;;;;;;;;;24.64;29.62;98345.97;7386186;19;19919;-83
2023/06/04 12:31:31;;;;;;;;;;;;;;;24.54;30.39;98341.25;7390187;19;19918;-85
2023/06/04 12:33:59;;;;;;;;;;;;;;;24.54;28.99;98346.66;7384437;19;19998;-84
2023/06/04 12:36:29;;;;;;;;;;;;;;;24.60;29.43;98345.66;7388185;19;19982;-83
2023/06/04 12:38:59;;;;;;;;;;;;;;;24.61;31.12;98341.88;7391044;19;19931;-82
2023/06/04 12:41:26;;;;;;;;;;;;;;;24.62;30.81;98342.69;7393915;19;19978;-86
2023/06/04 12:43:52;;;;;;;;;;;;;;;24.53;30.17;98343.09;7388392;19;19923;-86
2023/06/04 12:46:20;;;;;;;;;;;;;;;24.58;28.90;98347.78;7386742;19;19970;-81
2023/06/04 12:48:47;;;;;;;;;;;;;;;24.65;32.82;98353.84;7390040;19;20349;-80
2023/06/04 12:51:13;;;;;;;;;;;;;;;24.66;32.07;98344.66;7389837;19;19923;-83
2023/06/04 12:53:43;;;;;;;;;;;;;;;24.68;29.06;98339.81;7386539;19;19930;-81